sensor_id;sensor_type;location;lat;lon;timestamp;P1;durP1;ratioP1;P2;durP2;ratioP2
62479;SDS011;48526;48.846;2.322;2022-12-24T00:02:05;8.75;;;7.50;;
62479;SDS011;48526;48.846;2.322;2022-12-24T00:04:31;6.75;;;4.00;;
62479;SDS011;48526;48.846;2.322;2022-12-24T00:06:56;6.25;;;5.00;;
62479;SDS011;48526;48.846;2.322;2022-12-24T00:09:22;7.50;;;3.75;;
62479;SDS011;48526;48.846;2.322;2022-12-24T00:11:47;10.50;;;4.00;;
62479;SDS011;48526;48.846;2.322;2022-12-24T00:14:12;5.50;;;5.00;;
62479;SDS011;48526;48.846;2.322;2022-12-24T00:16:38;5.00;;;5.00;;
62479;SDS011;48526;48.846;2.322;2022-12-24T00:19:03;14.25;;;7.00;;
62479;SDS011;48526;48.846;2.322;2022-12-24T00:21:29;8.50;;;3.00;;
62479;SDS011;48526;48.846;2.322;2022-12-24T00:23:54;13.00;;;5.00;;
62479;SDS011;48526;48.846;2.322;2022-12-24T00:26:19;7.75;;;4.25;;
62479;SDS011;48526;48.846;2.322;2022-12-24T00:28:45;8.25;;;5.00;;
62479;SDS011;48526;48.846;2.322;2022-12-24T05:02:53;8.75;;;6.75;;
62479;SDS011;48526;48.846;2.322;2022-12-24T05:05:19;8.25;;;4.75;;
62479;SDS011;48526;48.846;2.322;2022-12-24T05:07:45;4.00;;;3.50;;
62479;SDS011;48526;48.846;2.322;2022-12-24T05:10:10;7.00;;;6.50;;
62479;SDS011;48526;48.846;2.322;2022-12-24T05:12:36;11.25;;;8.25;;
62479;SDS011;48526;48.846;2.322;2022-12-24T05:15:02;7.50;;;4.75;;
62479;SDS011;48526;48.846;2.322;2022-12-24T05:17:29;4.75;;;4.00;;
62479;SDS011;48526;48.846;2.322;2022-12-24T05:19:54;9.75;;;5.50;;
62479;SDS011;48526;48.846;2.322;2022-12-24T05:22:19;2.75;;;1.00;;
62479;SDS011;48526;48.846;2.322;2022-12-24T05:25:03;7.25;;;4.50;;
62479;SDS011;48526;48.846;2.322;2022-12-24T05:27:48;9.25;;;5.50;;
62479;SDS011;48526;48.846;2.322;2022-12-24T05:30:13;11.00;;;7.75;;
62479;SDS011;48526;48.846;2.322;2022-12-24T05:32:39;11.50;;;3.00;;
62479;SDS011;48526;48.846;2.322;2022-12-24T05:35:04;9.50;;;6.00;;
62479;SDS011;48526;48.846;2.322;2022-12-24T05:37:29;11.75;;;8.00;;
62479;SDS011;48526;48.846;2.322;2022-12-24T05:39:55;10.00;;;6.50;;
62479;SDS011;48526;48.846;2.322;2022-12-24T05:42:20;9.00;;;4.75;;
62479;SDS011;48526;48.846;2.322;2022-12-24T05:44:46;8.00;;;4.00;;
62479;SDS011;48526;48.846;2.322;2022-12-24T05:47:11;8.75;;;6.50;;
62479;SDS011;48526;48.846;2.322;2022-12-24T05:49:38;8.50;;;6.00;;
62479;SDS011;48526;48.846;2.322;2022-12-24T05:52:03;7.00;;;5.50;;
62479;SDS011;48526;48.846;2.322;2022-12-24T05:54:30;16.25;;;7.00;;
62479;SDS011;48526;48.846;2.322;2022-12-24T05:56:55;8.75;;;5.50;;
62479;SDS011;48526;48.846;2.322;2022-12-24T05:59:21;8.50;;;6.00;;
62479;SDS011;48526;48.846;2.322;2022-12-24T06:01:46;15.75;;;7.25;;
62479;SDS011;48526;48.846;2.322;2022-12-24T06:04:12;5.75;;;4.25;;
62479;SDS011;48526;48.846;2.322;2022-12-24T06:06:38;9.00;;;6.50;;
62479;SDS011;48526;48.846;2.322;2022-12-24T06:09:03;10.50;;;4.75;;
62479;SDS011;48526;48.846;2.322;2022-12-24T06:11:30;7.75;;;4.75;;
62479;SDS011;48526;48.846;2.322;2022-12-24T06:13:56;9.75;;;5.00;;
62479;SDS011;48526;48.846;2.322;2022-12-24T06:16:22;8.75;;;7.50;;
62479;SDS011;48526;48.846;2.322;2022-12-24T06:18:48;6.25;;;2.50;;
62479;SDS011;48526;48.846;2.322;2022-12-24T06:21:14;7.00;;;3.00;;
62479;SDS011;48526;48.846;2.322;2022-12-24T06:23:41;5.50;;;5.25;;
62479;SDS011;48526;48.846;2.322;2022-12-24T06:26:08;6.50;;;4.50;;
62479;SDS011;48526;48.846;2.322;2022-12-24T06:28:35;13.00;;;6.00;;
62479;SDS011;48526;48.846;2.322;2022-12-24T06:31:02;7.50;;;5.25;;
62479;SDS011;48526;48.846;2.322;2022-12-24T06:33:29;10.25;;;4.50;;
62479;SDS011;48526;48.846;2.322;2022-12-24T06:35:57;7.25;;;7.25;;
62479;SDS011;48526;48.846;2.322;2022-12-24T06:38:22;9.75;;;4.00;;
62479;SDS011;48526;48.846;2.322;2022-12-24T06:40:47;5.00;;;2.50;;
62479;SDS011;48526;48.846;2.322;2022-12-24T06:43:13;8.00;;;4.50;;
62479;SDS011;48526;48.846;2.322;2022-12-24T06:45:39;6.50;;;3.00;;
62479;SDS011;48526;48.846;2.322;2022-12-24T06:48:08;4.25;;;2.50;;
62479;SDS011;48526;48.846;2.322;2022-12-24T06:50:35;3.50;;;3.50;;
62479;SDS011;48526;48.846;2.322;2022-12-24T06:53:00;1.25;;;1.25;;
62479;SDS011;48526;48.846;2.322;2022-12-24T06:55:26;4.25;;;3.00;;
62479;SDS011;48526;48.846;2.322;2022-12-24T06:57:51;4.50;;;2.75;;
62479;SDS011;48526;48.846;2.322;2022-12-24T07:00:17;7.25;;;3.50;;
62479;SDS011;48526;48.846;2.322;2022-12-24T07:02:45;2.00;;;2.00;;
62479;SDS011;48526;48.846;2.322;2022-12-24T07:05:12;4.25;;;2.75;;
62479;SDS011;48526;48.846;2.322;2022-12-24T07:07:43;2.00;;;1.25;;
62479;SDS011;48526;48.846;2.322;2022-12-24T07:10:10;1.00;;;1.00;;
62479;SDS011;48526;48.846;2.322;2022-12-24T07:12:38;3.50;;;2.50;;
62479;SDS011;48526;48.846;2.322;2022-12-24T07:15:03;1.75;;;1.75;;
62479;SDS011;48526;48.846;2.322;2022-12-24T07:17:30;4.75;;;3.75;;
62479;SDS011;48526;48.846;2.322;2022-12-24T07:19:57;5.50;;;2.00;;
62479;SDS011;48526;48.846;2.322;2022-12-24T07:22:22;3.50;;;1.00;;
62479;SDS011;48526;48.846;2.322;2022-12-24T07:24:48;1.75;;;1.75;;
62479;SDS011;48526;48.846;2.322;2022-12-24T07:27:14;4.00;;;1.00;;
62479;SDS011;48526;48.846;2.322;2022-12-24T07:29:39;5.25;;;3.00;;
62479;SDS011;48526;48.846;2.322;2022-12-24T07:32:05;6.00;;;2.00;;
62479;SDS011;48526;48.846;2.322;2022-12-24T07:34:30;2.00;;;2.00;;
62479;SDS011;48526;48.846;2.322;2022-12-24T07:36:56;3.25;;;0.25;;
62479;SDS011;48526;48.846;2.322;2022-12-24T07:39:21;4.25;;;2.00;;
62479;SDS011;48526;48.846;2.322;2022-12-24T07:41:47;2.25;;;1.75;;
62479;SDS011;48526;48.846;2.322;2022-12-24T07:44:14;7.75;;;2.00;;
62479;SDS011;48526;48.846;2.322;2022-12-24T07:46:40;2.50;;;2.25;;
62479;SDS011;48526;48.846;2.322;2022-12-24T07:49:05;6.50;;;3.00;;
62479;SDS011;48526;48.846;2.322;2022-12-24T07:51:31;2.25;;;2.00;;
62479;SDS011;48526;48.846;2.322;2022-12-24T07:53:58;6.50;;;2.25;;
62479;SDS011;48526;48.846;2.322;2022-12-24T07:56:23;1.50;;;1.50;;
62479;SDS011;48526;48.846;2.322;2022-12-24T07:58:49;4.50;;;3.25;;
62479;SDS011;48526;48.846;2.322;2022-12-24T08:01:16;2.50;;;1.00;;
62479;SDS011;48526;48.846;2.322;2022-12-24T08:03:43;5.75;;;1.00;;
62479;SDS011;48526;48.846;2.322;2022-12-24T08:06:09;3.75;;;1.50;;
62479;SDS011;48526;48.846;2.322;2022-12-24T08:08:35;6.25;;;1.50;;
62479;SDS011;48526;48.846;2.322;2022-12-24T08:11:01;1.75;;;1.75;;
62479;SDS011;48526;48.846;2.322;2022-12-24T08:13:28;5.75;;;1.25;;
62479;SDS011;48526;48.846;2.322;2022-12-24T08:15:54;2.25;;;2.25;;
62479;SDS011;48526;48.846;2.322;2022-12-24T08:18:20;3.00;;;2.00;;
62479;SDS011;48526;48.846;2.322;2022-12-24T08:20:45;2.00;;;1.00;;
62479;SDS011;48526;48.846;2.322;2022-12-24T08:23:10;3.00;;;2.25;;
62479;SDS011;48526;48.846;2.322;2022-12-24T08:25:36;5.00;;;2.50;;
62479;SDS011;48526;48.846;2.322;2022-12-24T08:28:05;2.00;;;1.00;;
62479;SDS011;48526;48.846;2.322;2022-12-24T08:30:31;4.00;;;2.00;;
62479;SDS011;48526;48.846;2.322;2022-12-24T08:32:57;2.00;;;1.00;;
62479;SDS011;48526;48.846;2.322;2022-12-24T08:35:23;1.00;;;1.00;;
62479;SDS011;48526;48.846;2.322;2022-12-24T08:37:49;1.00;;;1.00;;
62479;SDS011;48526;48.846;2.322;2022-12-24T08:40:14;3.50;;;2.25;;
62479;SDS011;48526;48.846;2.322;2022-12-24T08:42:39;2.25;;;1.00;;
62479;SDS011;48526;48.846;2.322;2022-12-24T08:45:05;2.75;;;0.25;;
62479;SDS011;48526;48.846;2.322;2022-12-24T08:47:31;2.50;;;1.00;;
62479;SDS011;48526;48.846;2.322;2022-12-24T08:49:56;2.25;;;1.00;;
62479;SDS011;48526;48.846;2.322;2022-12-24T08:52:22;3.00;;;1.00;;
62479;SDS011;48526;48.846;2.322;2022-12-24T08:54:47;2.75;;;2.00;;
62479;SDS011;48526;48.846;2.322;2022-12-24T08:57:12;3.00;;;2.25;;
62479;SDS011;48526;48.846;2.322;2022-12-24T08:59:38;2.25;;;1.25;;
62479;SDS011;48526;48.846;2.322;2022-12-24T09:02:04;3.00;;;1.25;;
62479;SDS011;48526;48.846;2.322;2022-12-24T09:04:30;3.25;;;1.50;;
62479;SDS011;48526;48.846;2.322;2022-12-24T09:06:56;2.00;;;1.00;;
62479;SDS011;48526;48.846;2.322;2022-12-24T09:09:22;4.00;;;2.50;;
62479;SDS011;48526;48.846;2.322;2022-12-24T09:11:47;2.25;;;2.00;;
62479;SDS011;48526;48.846;2.322;2022-12-24T09:14:16;2.00;;;1.00;;
62479;SDS011;48526;48.846;2.322;2022-12-24T09:16:42;3.25;;;2.00;;
62479;SDS011;48526;48.846;2.322;2022-12-24T09:19:07;4.00;;;1.50;;
62479;SDS011;48526;48.846;2.322;2022-12-24T09:21:33;5.00;;;2.00;;
62479;SDS011;48526;48.846;2.322;2022-12-24T09:23:58;2.25;;;2.25;;
62479;SDS011;48526;48.846;2.322;2022-12-24T09:26:25;2.00;;;0.00;;
62479;SDS011;48526;48.846;2.322;2022-12-24T09:28:51;1.00;;;1.00;;
62479;SDS011;48526;48.846;2.322;2022-12-24T09:31:17;6.00;;;2.00;;
62479;SDS011;48526;48.846;2.322;2022-12-24T09:33:45;5.00;;;1.25;;
62479;SDS011;48526;48.846;2.322;2022-12-24T09:36:12;4.25;;;2.50;;
62479;SDS011;48526;48.846;2.322;2022-12-24T09:38:38;1.50;;;1.50;;
62479;SDS011;48526;48.846;2.322;2022-12-24T09:47:03;2.00;;;1.00;;
62479;SDS011;48526;48.846;2.322;2022-12-24T09:50:01;1.75;;;1.75;;
62479;SDS011;48526;48.846;2.322;2022-12-24T09:52:34;2.00;;;2.00;;
62479;SDS011;48526;48.846;2.322;2022-12-24T09:55:03;5.25;;;4.00;;
62479;SDS011;48526;48.846;2.322;2022-12-24T09:57:43;5.00;;;4.00;;
62479;SDS011;48526;48.846;2.322;2022-12-24T10:00:17;2.75;;;2.00;;
62479;SDS011;48526;48.846;2.322;2022-12-24T10:02:54;3.50;;;1.25;;
62479;SDS011;48526;48.846;2.322;2022-12-24T10:05:33;1.50;;;1.50;;
62479;SDS011;48526;48.846;2.322;2022-12-24T10:16:18;1.00;;;1.00;;
62479;SDS011;48526;48.846;2.322;2022-12-24T10:19:02;3.50;;;2.00;;
62479;SDS011;48526;48.846;2.322;2022-12-24T10:27:23;4.00;;;1.00;;
62479;SDS011;48526;48.846;2.322;2022-12-24T10:29:55;4.00;;;3.00;;
62479;SDS011;48526;48.846;2.322;2022-12-24T10:32:33;2.25;;;2.00;;
62479;SDS011;48526;48.846;2.322;2022-12-24T10:35:04;2.50;;;2.50;;
62479;SDS011;48526;48.846;2.322;2022-12-24T10:37:35;1.75;;;1.00;;
62479;SDS011;48526;48.846;2.322;2022-12-24T10:40:02;4.50;;;1.75;;
62479;SDS011;48526;48.846;2.322;2022-12-24T10:42:40;4.00;;;1.50;;
62479;SDS011;48526;48.846;2.322;2022-12-24T10:45:13;3.50;;;2.00;;
62479;SDS011;48526;48.846;2.322;2022-12-24T10:47:39;5.00;;;2.00;;
62479;SDS011;48526;48.846;2.322;2022-12-24T10:53:05;1.50;;;1.50;;
62479;SDS011;48526;48.846;2.322;2022-12-24T10:55:38;2.00;;;1.75;;
62479;SDS011;48526;48.846;2.322;2022-12-24T10:58:04;1.75;;;0.00;;
62479;SDS011;48526;48.846;2.322;2022-12-24T11:00:31;4.50;;;1.75;;
62479;SDS011;48526;48.846;2.322;2022-12-24T11:05:36;4.75;;;1.75;;
62479;SDS011;48526;48.846;2.322;2022-12-24T11:10:28;4.00;;;1.75;;
62479;SDS011;48526;48.846;2.322;2022-12-24T11:12:55;1.25;;;1.25;;
62479;SDS011;48526;48.846;2.322;2022-12-24T11:15:21;1.50;;;1.25;;
62479;SDS011;48526;48.846;2.322;2022-12-24T11:17:59;1.75;;;1.75;;
62479;SDS011;48526;48.846;2.322;2022-12-24T11:20:29;5.00;;;3.00;;
62479;SDS011;48526;48.846;2.322;2022-12-24T11:22:58;4.00;;;1.75;;
62479;SDS011;48526;48.846;2.322;2022-12-24T11:25:26;8.00;;;2.00;;
62479;SDS011;48526;48.846;2.322;2022-12-24T11:27:56;2.50;;;1.00;;
62479;SDS011;48526;48.846;2.322;2022-12-24T11:35:30;1.00;;;1.00;;
62479;SDS011;48526;48.846;2.322;2022-12-24T11:40:35;1.50;;;1.25;;
62479;SDS011;48526;48.846;2.322;2022-12-24T11:43:03;4.00;;;2.00;;
62479;SDS011;48526;48.846;2.322;2022-12-24T11:45:31;2.00;;;2.00;;
62479;SDS011;48526;48.846;2.322;2022-12-24T11:47:58;3.25;;;3.25;;
62479;SDS011;48526;48.846;2.322;2022-12-24T11:50:25;0.75;;;0.75;;
62479;SDS011;48526;48.846;2.322;2022-12-24T11:55:43;3.25;;;1.75;;
62479;SDS011;48526;48.846;2.322;2022-12-24T12:01:01;4.00;;;1.50;;
62479;SDS011;48526;48.846;2.322;2022-12-24T12:03:39;4.00;;;3.50;;
62479;SDS011;48526;48.846;2.322;2022-12-24T12:09:04;3.25;;;3.00;;
62479;SDS011;48526;48.846;2.322;2022-12-24T12:11:32;3.25;;;1.00;;
62479;SDS011;48526;48.846;2.322;2022-12-24T12:14:00;4.50;;;1.25;;
62479;SDS011;48526;48.846;2.322;2022-12-24T12:16:28;4.50;;;2.75;;
62479;SDS011;48526;48.846;2.322;2022-12-24T12:19:36;5.25;;;1.00;;
62479;SDS011;48526;48.846;2.322;2022-12-24T12:22:26;3.75;;;2.25;;
62479;SDS011;48526;48.846;2.322;2022-12-24T12:24:57;2.75;;;2.00;;
62479;SDS011;48526;48.846;2.322;2022-12-24T12:30:15;2.75;;;2.00;;
62479;SDS011;48526;48.846;2.322;2022-12-24T12:35:24;2.50;;;2.50;;
62479;SDS011;48526;48.846;2.322;2022-12-24T12:37:57;2.50;;;2.00;;
62479;SDS011;48526;48.846;2.322;2022-12-24T12:40:39;3.75;;;1.25;;
62479;SDS011;48526;48.846;2.322;2022-12-24T12:43:13;2.00;;;2.00;;
62479;SDS011;48526;48.846;2.322;2022-12-24T12:51:23;5.25;;;1.75;;
62479;SDS011;48526;48.846;2.322;2022-12-24T12:56:46;1.50;;;1.00;;
62479;SDS011;48526;48.846;2.322;2022-12-24T13:13:31;4.75;;;2.00;;
62479;SDS011;48526;48.846;2.322;2022-12-24T13:21:19;1.00;;;1.00;;
62479;SDS011;48526;48.846;2.322;2022-12-24T13:23:47;7.25;;;2.25;;
62479;SDS011;48526;48.846;2.322;2022-12-24T13:26:13;4.50;;;3.50;;
62479;SDS011;48526;48.846;2.322;2022-12-24T13:28:39;2.75;;;2.25;;
62479;SDS011;48526;48.846;2.322;2022-12-24T13:33:52;4.00;;;3.25;;
62479;SDS011;48526;48.846;2.322;2022-12-24T13:36:20;4.00;;;2.50;;
62479;SDS011;48526;48.846;2.322;2022-12-24T13:38:46;12.00;;;3.00;;
62479;SDS011;48526;48.846;2.322;2022-12-24T13:49:32;5.00;;;3.00;;
62479;SDS011;48526;48.846;2.322;2022-12-24T13:54:37;2.25;;;2.25;;
62479;SDS011;48526;48.846;2.322;2022-12-24T14:08:10;2.25;;;2.25;;
62479;SDS011;48526;48.846;2.322;2022-12-24T14:10:39;7.75;;;3.00;;
62479;SDS011;48526;48.846;2.322;2022-12-24T14:13:46;2.00;;;2.00;;
62479;SDS011;48526;48.846;2.322;2022-12-24T14:16:22;2.25;;;1.75;;
62479;SDS011;48526;48.846;2.322;2022-12-24T14:18:58;7.75;;;3.25;;
62479;SDS011;48526;48.846;2.322;2022-12-24T14:21:33;3.25;;;1.00;;
62479;SDS011;48526;48.846;2.322;2022-12-24T14:24:02;2.75;;;1.75;;
62479;SDS011;48526;48.846;2.322;2022-12-24T14:26:31;7.50;;;4.00;;
62479;SDS011;48526;48.846;2.322;2022-12-24T14:28:59;4.00;;;3.00;;
62479;SDS011;48526;48.846;2.322;2022-12-24T14:31:27;6.50;;;3.25;;
62479;SDS011;48526;48.846;2.322;2022-12-24T14:34:04;4.50;;;3.50;;
62479;SDS011;48526;48.846;2.322;2022-12-24T14:36:33;4.50;;;2.75;;
62479;SDS011;48526;48.846;2.322;2022-12-24T14:38:59;2.00;;;2.00;;
62479;SDS011;48526;48.846;2.322;2022-12-24T14:41:45;1.25;;;1.25;;
62479;SDS011;48526;48.846;2.322;2022-12-24T14:47:24;5.00;;;1.75;;
62479;SDS011;48526;48.846;2.322;2022-12-24T14:55:52;2.25;;;2.00;;
62479;SDS011;48526;48.846;2.322;2022-12-24T15:00:49;4.75;;;2.50;;
62479;SDS011;48526;48.846;2.322;2022-12-24T15:03:17;4.00;;;3.00;;
62479;SDS011;48526;48.846;2.322;2022-12-24T15:05:43;4.00;;;2.00;;
62479;SDS011;48526;48.846;2.322;2022-12-24T15:08:15;4.25;;;2.25;;
62479;SDS011;48526;48.846;2.322;2022-12-24T15:10:43;7.75;;;4.00;;
62479;SDS011;48526;48.846;2.322;2022-12-24T15:15:49;1.50;;;1.25;;
62479;SDS011;48526;48.846;2.322;2022-12-24T15:18:17;2.25;;;2.25;;
62479;SDS011;48526;48.846;2.322;2022-12-24T15:20:46;2.75;;;2.75;;
62479;SDS011;48526;48.846;2.322;2022-12-24T15:23:21;7.00;;;3.75;;
62479;SDS011;48526;48.846;2.322;2022-12-24T15:26:00;5.50;;;3.50;;
62479;SDS011;48526;48.846;2.322;2022-12-24T15:28:36;3.50;;;3.50;;
62479;SDS011;48526;48.846;2.322;2022-12-24T15:31:10;4.00;;;3.00;;
62479;SDS011;48526;48.846;2.322;2022-12-24T15:33:38;6.50;;;4.25;;
62479;SDS011;48526;48.846;2.322;2022-12-24T15:36:04;5.00;;;4.50;;
62479;SDS011;48526;48.846;2.322;2022-12-24T15:38:35;5.00;;;4.25;;
62479;SDS011;48526;48.846;2.322;2022-12-24T15:41:03;5.50;;;3.75;;
62479;SDS011;48526;48.846;2.322;2022-12-24T15:43:40;5.75;;;4.00;;
62479;SDS011;48526;48.846;2.322;2022-12-24T15:46:06;7.75;;;4.50;;
62479;SDS011;48526;48.846;2.322;2022-12-24T15:48:31;5.25;;;5.00;;
62479;SDS011;48526;48.846;2.322;2022-12-24T15:50:58;6.75;;;3.50;;
62479;SDS011;48526;48.846;2.322;2022-12-24T15:56:01;3.50;;;3.50;;
62479;SDS011;48526;48.846;2.322;2022-12-24T15:58:35;3.00;;;3.00;;
62479;SDS011;48526;48.846;2.322;2022-12-24T16:03:37;4.00;;;3.00;;
62479;SDS011;48526;48.846;2.322;2022-12-24T16:08:36;4.00;;;2.75;;
62479;SDS011;48526;48.846;2.322;2022-12-24T16:11:11;6.25;;;5.50;;
62479;SDS011;48526;48.846;2.322;2022-12-24T16:14:03;8.25;;;4.50;;
62479;SDS011;48526;48.846;2.322;2022-12-24T16:16:36;4.75;;;3.00;;
62479;SDS011;48526;48.846;2.322;2022-12-24T16:19:04;8.50;;;7.00;;
62479;SDS011;48526;48.846;2.322;2022-12-24T16:21:40;10.25;;;7.50;;
62479;SDS011;48526;48.846;2.322;2022-12-24T16:24:12;7.00;;;5.00;;
62479;SDS011;48526;48.846;2.322;2022-12-24T16:26:40;14.75;;;8.00;;
62479;SDS011;48526;48.846;2.322;2022-12-24T16:29:05;4.00;;;3.75;;
62479;SDS011;48526;48.846;2.322;2022-12-24T16:31:36;13.25;;;6.50;;
62479;SDS011;48526;48.846;2.322;2022-12-24T16:34:03;9.25;;;5.00;;
62479;SDS011;48526;48.846;2.322;2022-12-24T16:36:29;8.50;;;7.50;;
62479;SDS011;48526;48.846;2.322;2022-12-24T16:38:59;5.00;;;4.75;;
62479;SDS011;48526;48.846;2.322;2022-12-24T16:41:43;8.50;;;4.00;;
62479;SDS011;48526;48.846;2.322;2022-12-24T16:44:27;6.25;;;4.25;;
62479;SDS011;48526;48.846;2.322;2022-12-24T16:46:53;6.00;;;3.75;;
62479;SDS011;48526;48.846;2.322;2022-12-24T16:49:20;5.00;;;5.00;;
62479;SDS011;48526;48.846;2.322;2022-12-24T16:51:46;7.75;;;6.00;;
62479;SDS011;48526;48.846;2.322;2022-12-24T16:54:13;5.25;;;4.75;;
62479;SDS011;48526;48.846;2.322;2022-12-24T16:56:39;9.00;;;7.25;;
62479;SDS011;48526;48.846;2.322;2022-12-24T16:59:20;8.75;;;5.75;;
62479;SDS011;48526;48.846;2.322;2022-12-24T17:01:47;14.50;;;10.50;;
62479;SDS011;48526;48.846;2.322;2022-12-24T17:04:13;9.75;;;5.75;;
62479;SDS011;48526;48.846;2.322;2022-12-24T17:06:39;12.50;;;9.00;;
62479;SDS011;48526;48.846;2.322;2022-12-24T17:09:05;8.75;;;8.75;;
62479;SDS011;48526;48.846;2.322;2022-12-24T17:11:31;11.25;;;9.25;;
62479;SDS011;48526;48.846;2.322;2022-12-24T17:13:57;8.00;;;7.25;;
62479;SDS011;48526;48.846;2.322;2022-12-24T17:16:22;9.00;;;7.25;;
62479;SDS011;48526;48.846;2.322;2022-12-24T17:18:48;9.00;;;9.00;;
62479;SDS011;48526;48.846;2.322;2022-12-24T17:21:14;11.50;;;7.00;;
62479;SDS011;48526;48.846;2.322;2022-12-24T17:23:41;10.00;;;8.25;;
62479;SDS011;48526;48.846;2.322;2022-12-24T17:26:07;8.25;;;7.50;;
62479;SDS011;48526;48.846;2.322;2022-12-24T17:28:32;11.75;;;9.00;;
62479;SDS011;48526;48.846;2.322;2022-12-24T17:30:58;9.75;;;8.25;;
62479;SDS011;48526;48.846;2.322;2022-12-24T17:33:23;8.75;;;7.75;;
62479;SDS011;48526;48.846;2.322;2022-12-24T17:35:49;8.50;;;7.25;;
62479;SDS011;48526;48.846;2.322;2022-12-24T17:38:16;10.75;;;10.75;;
62479;SDS011;48526;48.846;2.322;2022-12-24T17:40:41;10.00;;;7.00;;
62479;SDS011;48526;48.846;2.322;2022-12-24T17:43:07;20.75;;;17.00;;
62479;SDS011;48526;48.846;2.322;2022-12-24T17:45:32;9.25;;;9.25;;
62479;SDS011;48526;48.846;2.322;2022-12-24T17:47:58;10.75;;;8.25;;
62479;SDS011;48526;48.846;2.322;2022-12-24T17:50:24;9.50;;;7.50;;
62479;SDS011;48526;48.846;2.322;2022-12-24T17:52:51;9.00;;;7.75;;
62479;SDS011;48526;48.846;2.322;2022-12-24T17:55:17;12.75;;;8.75;;
62479;SDS011;48526;48.846;2.322;2022-12-24T17:57:44;10.00;;;8.50;;
62479;SDS011;48526;48.846;2.322;2022-12-24T18:00:11;13.00;;;11.25;;
62479;SDS011;48526;48.846;2.322;2022-12-24T18:02:37;19.50;;;10.50;;
62479;SDS011;48526;48.846;2.322;2022-12-24T18:05:02;12.25;;;9.25;;
62479;SDS011;48526;48.846;2.322;2022-12-24T18:07:28;13.00;;;11.00;;
62479;SDS011;48526;48.846;2.322;2022-12-24T18:09:53;17.25;;;12.50;;
62479;SDS011;48526;48.846;2.322;2022-12-24T18:12:19;14.75;;;10.75;;
62479;SDS011;48526;48.846;2.322;2022-12-24T18:14:44;19.50;;;13.75;;
62479;SDS011;48526;48.846;2.322;2022-12-24T18:17:09;10.25;;;9.25;;
62479;SDS011;48526;48.846;2.322;2022-12-24T18:19:35;17.25;;;12.50;;
62479;SDS011;48526;48.846;2.322;2022-12-24T18:22:01;12.00;;;10.00;;
62479;SDS011;48526;48.846;2.322;2022-12-24T18:24:26;17.75;;;15.25;;
62479;SDS011;48526;48.846;2.322;2022-12-24T18:26:52;13.50;;;13.00;;
62479;SDS011;48526;48.846;2.322;2022-12-24T18:29:17;10.75;;;10.00;;
62479;SDS011;48526;48.846;2.322;2022-12-24T18:31:42;15.00;;;9.75;;
62479;SDS011;48526;48.846;2.322;2022-12-24T18:34:10;14.00;;;13.25;;
62479;SDS011;48526;48.846;2.322;2022-12-24T18:36:36;12.50;;;12.50;;
62479;SDS011;48526;48.846;2.322;2022-12-24T18:39:02;21.50;;;14.00;;
62479;SDS011;48526;48.846;2.322;2022-12-24T18:41:28;14.75;;;12.25;;
62479;SDS011;48526;48.846;2.322;2022-12-24T18:43:54;14.75;;;10.75;;
62479;SDS011;48526;48.846;2.322;2022-12-24T18:46:22;15.50;;;12.25;;
62479;SDS011;48526;48.846;2.322;2022-12-24T18:48:51;14.75;;;9.50;;
62479;SDS011;48526;48.846;2.322;2022-12-24T18:51:19;16.75;;;11.75;;
62479;SDS011;48526;48.846;2.322;2022-12-24T18:53:46;19.00;;;15.00;;
62479;SDS011;48526;48.846;2.322;2022-12-24T18:56:12;12.75;;;11.75;;
62479;SDS011;48526;48.846;2.322;2022-12-24T18:58:39;9.50;;;8.75;;
62479;SDS011;48526;48.846;2.322;2022-12-24T19:01:23;12.25;;;11.25;;
62479;SDS011;48526;48.846;2.322;2022-12-24T19:03:51;10.25;;;8.25;;
62479;SDS011;48526;48.846;2.322;2022-12-24T19:06:16;16.50;;;12.75;;
62479;SDS011;48526;48.846;2.322;2022-12-24T19:08:43;13.25;;;9.50;;
62479;SDS011;48526;48.846;2.322;2022-12-24T19:11:09;21.25;;;16.25;;
62479;SDS011;48526;48.846;2.322;2022-12-24T19:13:35;21.25;;;17.25;;
62479;SDS011;48526;48.846;2.322;2022-12-24T19:16:06;20.50;;;19.00;;
62479;SDS011;48526;48.846;2.322;2022-12-24T19:18:32;20.50;;;16.25;;
62479;SDS011;48526;48.846;2.322;2022-12-24T19:21:04;21.25;;;15.25;;
62479;SDS011;48526;48.846;2.322;2022-12-24T19:23:31;19.50;;;18.50;;
62479;SDS011;48526;48.846;2.322;2022-12-24T19:25:56;20.50;;;17.00;;
62479;SDS011;48526;48.846;2.322;2022-12-24T19:28:22;23.75;;;19.25;;
62479;SDS011;48526;48.846;2.322;2022-12-24T19:30:47;25.00;;;16.25;;
62479;SDS011;48526;48.846;2.322;2022-12-24T19:33:14;24.25;;;19.50;;
62479;SDS011;48526;48.846;2.322;2022-12-24T19:35:39;22.25;;;20.75;;
62479;SDS011;48526;48.846;2.322;2022-12-24T19:38:04;22.00;;;18.00;;
62479;SDS011;48526;48.846;2.322;2022-12-24T19:40:30;19.50;;;17.50;;
62479;SDS011;48526;48.846;2.322;2022-12-24T19:42:55;27.50;;;17.75;;
62479;SDS011;48526;48.846;2.322;2022-12-24T19:45:22;19.00;;;17.00;;
62479;SDS011;48526;48.846;2.322;2022-12-24T19:47:47;15.25;;;14.50;;
62479;SDS011;48526;48.846;2.322;2022-12-24T19:50:14;16.75;;;16.75;;
62479;SDS011;48526;48.846;2.322;2022-12-24T19:52:41;19.25;;;15.00;;
62479;SDS011;48526;48.846;2.322;2022-12-24T19:55:06;18.50;;;15.25;;
62479;SDS011;48526;48.846;2.322;2022-12-24T19:57:33;14.75;;;10.75;;
62479;SDS011;48526;48.846;2.322;2022-12-24T19:59:58;15.00;;;14.00;;
62479;SDS011;48526;48.846;2.322;2022-12-24T20:02:23;18.50;;;16.50;;
62479;SDS011;48526;48.846;2.322;2022-12-24T20:04:49;27.25;;;17.75;;
62479;SDS011;48526;48.846;2.322;2022-12-24T20:07:15;18.75;;;17.50;;
62479;SDS011;48526;48.846;2.322;2022-12-24T20:09:40;18.25;;;14.50;;
62479;SDS011;48526;48.846;2.322;2022-12-24T20:12:06;12.25;;;12.00;;
62479;SDS011;48526;48.846;2.322;2022-12-24T20:14:31;16.25;;;13.00;;
62479;SDS011;48526;48.846;2.322;2022-12-24T20:16:57;16.25;;;14.50;;
62479;SDS011;48526;48.846;2.322;2022-12-24T20:19:22;19.75;;;16.00;;
62479;SDS011;48526;48.846;2.322;2022-12-24T20:21:48;18.25;;;16.25;;
62479;SDS011;48526;48.846;2.322;2022-12-24T20:24:13;13.25;;;12.00;;
62479;SDS011;48526;48.846;2.322;2022-12-24T20:26:38;22.75;;;15.75;;
62479;SDS011;48526;48.846;2.322;2022-12-24T20:29:05;23.00;;;21.25;;
62479;SDS011;48526;48.846;2.322;2022-12-24T20:31:32;18.25;;;16.00;;
62479;SDS011;48526;48.846;2.322;2022-12-24T20:34:00;17.00;;;15.00;;
62479;SDS011;48526;48.846;2.322;2022-12-24T20:36:26;21.00;;;15.75;;
62479;SDS011;48526;48.846;2.322;2022-12-24T20:38:52;15.00;;;14.00;;
62479;SDS011;48526;48.846;2.322;2022-12-24T20:41:19;13.50;;;13.50;;
62479;SDS011;48526;48.846;2.322;2022-12-24T20:43:46;13.25;;;12.50;;
62479;SDS011;48526;48.846;2.322;2022-12-24T20:46:12;10.75;;;10.75;;
62479;SDS011;48526;48.846;2.322;2022-12-24T20:48:37;11.00;;;10.75;;
62479;SDS011;48526;48.846;2.322;2022-12-24T20:51:04;10.25;;;9.50;;
62479;SDS011;48526;48.846;2.322;2022-12-24T20:53:33;9.50;;;9.25;;
62479;SDS011;48526;48.846;2.322;2022-12-24T20:55:58;12.75;;;11.25;;
62479;SDS011;48526;48.846;2.322;2022-12-24T20:58:25;13.50;;;11.25;;
62479;SDS011;48526;48.846;2.322;2022-12-24T21:00:51;14.50;;;10.25;;
62479;SDS011;48526;48.846;2.322;2022-12-24T21:03:17;17.75;;;15.75;;
62479;SDS011;48526;48.846;2.322;2022-12-24T21:05:43;10.00;;;9.75;;
62479;SDS011;48526;48.846;2.322;2022-12-24T21:08:09;11.00;;;9.00;;
62479;SDS011;48526;48.846;2.322;2022-12-24T21:10:36;10.25;;;8.00;;
62479;SDS011;48526;48.846;2.322;2022-12-24T21:13:03;13.00;;;9.00;;
62479;SDS011;48526;48.846;2.322;2022-12-24T21:15:32;14.00;;;11.25;;
62479;SDS011;48526;48.846;2.322;2022-12-24T21:17:59;10.50;;;10.00;;
62479;SDS011;48526;48.846;2.322;2022-12-24T21:20:25;8.75;;;8.75;;
62479;SDS011;48526;48.846;2.322;2022-12-24T21:22:58;9.75;;;9.50;;